Time;durP1;ratioP1;P1;durP2;ratioP2;P2;SDS_P1;SDS_P2;PMS_P1;PMS_P2;Temp;Humidity;BMP_temperature;BMP_pressure;BME280_temperature;BME280_humidity;BME280_pressure;Samples;Min_cycle;Max_cycle;Signal;HPM_P1;HPM_P2
2023/10/06 00:02:28;;;;;;;16.92;12.05;;;;;;;14.19;100.00;101743.16;7381017;19;20353;-65
2023/10/06 00:04:56;;;;;;;15.35;11.55;;;;;;;14.18;100.00;101749.53;7382073;19;20704;-64
2023/10/06 00:07:24;;;;;;;17.17;12.50;;;;;;;14.13;100.00;101746.56;7382248;19;20349;-65
2023/10/06 00:09:54;;;;;;;15.10;12.02;;;;;;;14.11;100.00;101745.91;7383474;19;20352;-63
2023/10/06 00:12:21;;;;;;;15.90;11.63;;;;;;;14.06;100.00;101740.22;7383629;19;20328;-64
2023/10/06 00:14:51;;;;;;;15.18;11.70;;;;;;;14.06;100.00;101745.56;7379501;19;20444;-65
2023/10/06 00:17:18;;;;;;;19.20;11.63;;;;;;;14.05;100.00;101749.25;7382861;19;20369;-65
2023/10/06 00:19:48;;;;;;;15.83;11.33;;;;;;;14.02;100.00;101745.06;7375729;19;20368;-65
2023/10/06 00:24:42;;;;;;;15.05;11.27;;;;;;;13.97;100.00;101743.94;7379932;19;20364;-65
2023/10/06 00:27:11;;;;;;;18.17;11.23;;;;;;;13.91;100.00;101731.28;7381840;19;20365;-65
2023/10/06 00:30:20;;;;;;;16.35;10.43;;;;;;;13.91;100.00;101747.28;7383210;19;20408;-65
2023/10/06 00:32:36;;;;;;;16.67;10.15;;;;;;;13.85;100.00;101738.94;7381988;19;20854;-65
2023/10/06 00:35:15;;;;;;;14.38;10.30;;;;;;;13.84;100.00;101741.81;7379560;19;20364;-65
2023/10/06 00:37:42;;;;;;;20.23;11.20;;;;;;;13.79;100.00;101742.31;7378937;19;20408;-64
2023/10/06 00:40:19;;;;;;;18.02;11.13;;;;;;;13.75;100.00;101745.47;7379734;19;20364;-64
2023/10/06 00:42:51;;;;;;;17.27;11.70;;;;;;;13.69;100.00;101739.00;7383650;19;20376;-64
2023/10/06 00:45:18;;;;;;;14.85;11.07;;;;;;;13.65;100.00;101729.69;7382479;19;20679;-65
2023/10/06 00:47:44;;;;;;;14.68;11.20;;;;;;;13.60;100.00;101730.19;7380047;19;20365;-65
2023/10/06 00:50:12;;;;;;;17.85;11.65;;;;;;;13.56;100.00;101725.38;7381322;19;20369;-65
2023/10/06 00:52:40;;;;;;;20.38;11.98;;;;;;;13.50;100.00;101724.22;7379540;19;20343;-65
2023/10/06 00:55:11;;;;;;;18.35;11.38;;;;;;;13.48;100.00;101710.22;7379869;19;20372;-65
2023/10/06 00:57:40;;;;;;;15.07;10.82;;;;;;;13.45;100.00;101718.53;7382011;19;20369;-65
2023/10/06 01:00:19;;;;;;;18.10;11.73;;;;;;;13.43;100.00;101721.38;7384815;19;20381;-65
2023/10/06 01:02:47;;;;;;;16.05;11.27;;;;;;;13.41;100.00;101712.72;7387981;19;20389;-65
2023/10/06 01:05:16;;;;;;;17.95;10.70;;;;;;;13.43;100.00;101729.38;7389046;19;20721;-65
2023/10/06 01:07:46;;;;;;;15.93;10.52;;;;;;;13.42;100.00;101721.56;7388006;19;20343;-65
2023/10/06 01:10:18;;;;;;;15.80;10.30;;;;;;;13.43;100.00;101726.72;7382893;19;20389;-64
2023/10/06 01:12:50;;;;;;;16.38;9.60;;;;;;;13.45;100.00;101723.88;7381301;19;20682;-64
2023/10/06 01:15:19;;;;;;;15.27;9.10;;;;;;;13.45;100.00;101718.53;7384044;19;20488;-64
2023/10/06 01:17:47;;;;;;;15.82;8.77;;;;;;;13.45;100.00;101723.88;7385660;19;20332;-65
2023/10/06 01:20:29;;;;;;;15.10;8.50;;;;;;;13.46;100.00;101714.88;7384021;19;20377;-64
2023/10/06 01:22:56;;;;;;;13.52;8.40;;;;;;;13.43;100.00;101721.38;7388022;19;20364;-64
2023/10/06 01:25:24;;;;;;;17.93;8.73;;;;;;;13.42;100.00;101714.38;7385200;19;20372;-65
2023/10/06 01:27:54;;;;;;;13.65;7.80;;;;;;;13.42;100.00;101716.22;7385672;19;20340;-64
2023/10/06 01:30:21;;;;;;;12.10;7.70;;;;;;;13.41;100.00;101709.25;7386649;19;20458;-64
2023/10/06 01:32:51;;;;;;;12.35;7.50;;;;;;;13.42;100.00;101710.88;7387487;19;20344;-64
2023/10/06 01:35:23;;;;;;;10.50;7.00;;;;;;;13.41;100.00;101710.06;7385651;19;20931;-64
2023/10/06 01:37:56;;;;;;;12.63;7.10;;;;;;;13.40;100.00;101697.72;7387567;19;20364;-62
2023/10/06 01:42:53;;;;;;;11.90;7.28;;;;;;;13.42;100.00;101695.72;7388497;19;20440;-65
2023/10/06 01:45:23;;;;;;;13.97;7.47;;;;;;;13.44;100.00;101696.38;7387648;19;20444;-65
2023/10/06 01:50:39;;;;;;;11.88;6.63;;;;;;;13.44;99.89;101692.91;7385420;19;20452;-64
2023/10/06 01:53:07;;;;;;;16.05;7.93;;;;;;;13.43;99.67;101684.06;7386856;19;20373;-65
2023/10/06 01:55:39;;;;;;;11.90;6.60;;;;;;;13.42;99.68;101694.91;7385619;19;20360;-64
2023/10/06 01:58:11;;;;;;;11.98;6.82;;;;;;;13.38;99.73;101691.72;7384738;19;20396;-62
2023/10/06 02:00:38;;;;;;;12.68;7.13;;;;;;;13.35;99.78;101693.91;7386218;19;21039;-64
2023/10/06 02:03:10;;;;;;;12.77;6.80;;;;;;;13.33;99.86;101699.41;7386499;19;20733;-65
2023/10/06 02:05:40;;;;;;;11.15;6.80;;;;;;;13.32;99.95;101699.56;7382163;19;20324;-64
2023/10/06 02:08:14;;;;;;;13.90;7.18;;;;;;;13.27;99.92;101703.53;7381954;19;20399;-64
2023/10/06 02:10:43;;;;;;;11.02;6.78;;;;;;;13.25;99.82;101702.03;7386297;19;20449;-64
2023/10/06 02:13:10;;;;;;;11.33;7.00;;;;;;;13.24;99.68;101703.06;7384179;19;20399;-64
2023/10/06 02:15:36;;;;;;;14.15;6.97;;;;;;;13.21;99.76;101698.88;7384220;19;20365;-64
2023/10/06 02:18:07;;;;;;;12.23;7.20;;;;;;;13.17;99.85;101689.56;7386919;19;20372;-65
2023/10/06 02:20:34;;;;;;;15.85;7.05;;;;;;;13.15;99.89;101698.72;7383973;19;20883;-64
2023/10/06 02:23:03;;;;;;;16.37;8.27;;;;;;;13.11;99.87;101695.56;7384782;19;21914;-64
2023/10/06 02:25:31;;;;;;;12.43;7.25;;;;;;;13.08;99.83;101687.91;7385941;19;20363;-64
2023/10/06 02:28:04;;;;;;;12.70;7.35;;;;;;;13.05;99.95;101688.25;7384050;19;20400;-64
2023/10/06 02:30:37;;;;;;;14.02;7.40;;;;;;;13.02;100.00;101688.56;7383115;19;20324;-64
2023/10/06 02:33:07;;;;;;;12.57;7.70;;;;;;;12.98;100.00;101685.38;7385561;19;20340;-64
2023/10/06 02:35:34;;;;;;;13.40;7.50;;;;;;;12.94;100.00;101675.25;7387008;19;20360;-64
2023/10/06 02:38:05;;;;;;;13.07;7.90;;;;;;;12.90;100.00;101671.25;7385050;19;20365;-64
2023/10/06 02:40:43;;;;;;;16.00;8.15;;;;;;;12.88;100.00;101663.44;7381543;19;20368;-65
2023/10/06 02:43:17;;;;;;;16.98;8.18;;;;;;;12.86;100.00;101670.75;7387265;19;20352;-64
2023/10/06 02:45:44;;;;;;;14.18;8.57;;;;;;;12.88;100.00;101668.78;7383713;19;20360;-62
2023/10/06 02:48:15;;;;;;;13.83;8.83;;;;;;;12.88;100.00;101670.56;7383816;19;20381;-64
2023/10/06 02:50:44;;;;;;;17.02;8.75;;;;;;;12.87;100.00;101667.09;7383356;19;20336;-65
2023/10/06 02:53:14;;;;;;;16.75;8.35;;;;;;;12.88;99.88;101670.56;7385620;19;20360;-65
2023/10/06 02:55:43;;;;;;;13.45;8.15;;;;;;;12.88;99.82;101667.91;7382035;19;20954;-63
2023/10/06 02:58:18;;;;;;;14.88;7.50;;;;;;;12.89;99.45;101667.75;7382743;19;20360;-63
2023/10/06 03:00:50;;;;;;;12.75;7.18;;;;;;;12.90;99.25;101674.75;7385337;19;20340;-64
2023/10/06 03:03:26;;;;;;;14.30;7.50;;;;;;;12.92;99.11;101674.56;7375883;19;20460;-63
2023/10/06 03:05:57;;;;;;;16.42;7.50;;;;;;;12.95;98.86;101672.41;7380903;19;20339;-63
2023/10/06 03:08:30;;;;;;;16.55;7.65;;;;;;;12.96;98.65;101662.59;7379390;19;20376;-63
2023/10/06 03:10:56;;;;;;;15.45;7.13;;;;;;;12.97;98.41;101654.44;7378171;19;20405;-63
2023/10/06 03:13:32;;;;;;;13.88;6.68;;;;;;;12.96;98.41;101658.13;7379573;19;20860;-63
2023/10/06 03:16:00;;;;;;;12.40;6.20;;;;;;;12.97;98.17;101659.78;7383961;19;20387;-63
2023/10/06 03:18:28;;;;;;;15.55;6.88;;;;;;;12.95;98.32;101659.09;7378129;19;20364;-63
2023/10/06 03:21:15;;;;;;;13.57;6.90;;;;;;;12.92;98.23;101667.44;7380069;19;20476;-63
2023/10/06 03:23:47;;;;;;;12.88;6.43;;;;;;;12.89;98.47;101662.44;7382739;19;20392;-63
2023/10/06 03:26:34;;;;;;;13.23;6.67;;;;;;;12.87;98.25;101663.59;7378782;19;20375;-63
2023/10/06 03:29:02;;;;;;;11.18;6.80;;;;;;;12.86;98.35;101662.78;7376477;19;20380;-63
2023/10/06 03:31:44;;;;;;;12.85;7.28;;;;;;;12.88;98.15;101670.56;7381518;19;20358;-63
2023/10/06 03:34:19;;;;;;;14.55;6.60;;;;;;;12.83;98.21;101671.91;7379158;19;20350;-63
2023/10/06 03:36:51;;;;;;;11.90;6.72;;;;;;;12.81;98.18;101665.09;7380893;19;20392;-63
2023/10/06 03:39:30;;;;;;;13.48;6.80;;;;;;;12.77;98.52;101671.75;7381687;19;20360;-63
2023/10/06 03:42:06;;;;;;;12.07;6.30;;;;;;;12.76;98.34;101662.09;7380064;19;21054;-63
2023/10/06 03:44:34;;;;;;;14.73;6.53;;;;;;;12.75;98.27;101671.06;7383468;19;20368;-63
2023/10/06 03:47:05;;;;;;;13.18;6.38;;;;;;;12.72;98.44;101674.06;7378678;19;20324;-63
2023/10/06 03:49:33;;;;;;;13.68;6.20;;;;;;;12.71;98.39;101667.06;7381119;19;20671;-63
2023/10/06 03:52:01;;;;;;;15.43;6.57;;;;;;;12.70;98.46;101660.09;7379995;19;20691;-63
2023/10/06 03:54:29;;;;;;;12.05;6.47;;;;;;;12.70;98.23;101662.75;7380971;19;20432;-63
2023/10/06 03:56:56;;;;;;;13.30;6.25;;;;;;;12.69;98.14;101663.75;7375877;19;20477;-63
2023/10/06 03:59:23;;;;;;;15.38;6.88;;;;;;;12.68;98.41;101662.09;7379502;19;20704;-62
2023/10/06 04:01:51;;;;;;;16.13;6.88;;;;;;;12.68;98.17;101664.75;7382113;19;20444;-63
2023/10/06 04:04:22;;;;;;;14.93;6.95;;;;;;;12.68;98.22;101670.91;7384262;19;20353;-63
2023/10/06 04:06:50;;;;;;;13.23;6.78;;;;;;;12.67;98.49;101668.44;7377696;19;20364;-63
2023/10/06 04:09:27;;;;;;;14.27;7.30;;;;;;;12.64;98.51;101665.09;7382240;19;20364;-63
2023/10/06 04:12:00;;;;;;;13.10;6.32;;;;;;;12.65;98.69;101665.91;7380502;19;20389;-63
2023/10/06 04:14:31;;;;;;;10.52;6.15;;;;;;;12.67;98.59;101668.44;7383946;19;20359;-63
2023/10/06 04:17:01;;;;;;;13.82;5.93;;;;;;;12.67;98.79;101663.09;7381879;19;20344;-63
2023/10/06 04:19:29;;;;;;;10.23;5.80;;;;;;;12.69;98.76;101664.59;7383289;19;20694;-63
2023/10/06 04:21:55;;;;;;;11.80;5.70;;;;;;;12.71;98.78;101657.28;7381046;19;20356;-63
2023/10/06 04:24:22;;;;;;;11.82;6.43;;;;;;;12.71;98.97;101659.09;7380754;19;20436;-63
2023/10/06 04:26:49;;;;;;;10.48;5.38;;;;;;;12.74;98.74;101664.09;7381375;19;20367;-63
2023/10/06 04:29:16;;;;;;;11.48;5.93;;;;;;;12.77;98.74;101653.97;7381702;19;20370;-63
2023/10/06 04:31:45;;;;;;;11.48;5.57;;;;;;;12.80;98.60;101650.94;7384660;19;20717;-63
2023/10/06 04:34:14;;;;;;;8.27;5.13;;;;;;;12.80;98.45;101650.94;7389218;19;20375;-63
2023/10/06 04:36:40;;;;;;;10.32;5.35;;;;;;;12.81;98.37;101639.31;7391451;19;20400;-63
2023/10/06 04:39:11;;;;;;;10.43;4.85;;;;;;;12.83;98.56;101639.94;7391658;19;20368;-63
2023/10/06 04:41:41;;;;;;;12.05;4.97;;;;;;;12.87;98.21;101637.78;7389519;19;20364;-63
2023/10/06 04:44:08;;;;;;;10.98;4.90;;;;;;;12.88;97.89;101634.16;7393560;19;20356;-62
2023/10/06 04:46:35;;;;;;;9.82;4.30;;;;;;;12.89;97.83;101638.47;7393157;19;20363;-63
2023/10/06 04:49:02;;;;;;;9.23;4.53;;;;;;;12.91;97.63;101644.47;7391198;19;20365;-63
2023/10/06 04:55:04;;;;;;;9.73;4.00;;;;;;;12.88;97.34;101631.50;7392090;19;20456;-62
2023/10/06 04:57:31;;;;;;;8.65;4.10;;;;;;;12.86;97.22;101630.81;7394420;19;20412;-62
2023/10/06 04:59:58;;;;;;;8.45;3.85;;;;;;;12.86;97.38;101620.16;7389762;19;20789;-63
2023/10/06 05:02:25;;;;;;;9.88;4.25;;;;;;;12.83;97.17;101620.50;7392690;19;20697;-63
2023/10/06 05:04:52;;;;;;;12.02;4.38;;;;;;;12.82;97.21;101624.16;7384375;19;20364;-63
2023/10/06 05:07:19;;;;;;;9.35;3.72;;;;;;;12.79;97.06;101624.47;7389624;19;20400;-62
2023/10/06 05:09:46;;;;;;;8.60;4.30;;;;;;;12.74;97.30;101603.69;7388507;19;20360;-63
2023/10/06 05:12:14;;;;;;;7.15;4.10;;;;;;;12.72;97.04;101602.19;7391955;19;20367;-62
2023/10/06 05:14:41;;;;;;;9.77;4.10;;;;;;;12.69;97.21;101586.53;7388940;19;20356;-63
2023/10/06 05:17:08;;;;;;;10.02;3.97;;;;;;;12.67;97.27;101584.06;7387118;19;20447;-62
2023/10/06 05:19:35;;;;;;;9.55;3.83;;;;;;;12.65;97.34;101589.53;7389515;19;20344;-62
2023/10/06 05:22:04;;;;;;;12.57;3.83;;;;;;;12.67;97.51;101596.56;7389132;19;20348;-62
2023/10/06 05:24:32;;;;;;;8.02;4.05;;;;;;;12.67;97.54;101596.56;7389780;19;20393;-62
2023/10/06 05:26:59;;;;;;;10.05;4.20;;;;;;;12.71;97.55;101605.84;7391757;19;20360;-63
2023/10/06 05:29:25;;;;;;;7.75;3.55;;;;;;;12.73;97.41;101619.81;7389184;19;20352;-63
2023/10/06 05:31:52;;;;;;;9.40;4.07;;;;;;;12.75;97.34;101623.16;7384441;19;20356;-63
2023/10/06 05:34:19;;;;;;;8.30;3.85;;;;;;;12.77;97.27;101627.34;7389757;19;20373;-63
2023/10/06 05:36:46;;;;;;;10.57;3.85;;;;;;;12.79;97.15;101637.78;7384010;19;20376;-61
2023/10/06 05:39:12;;;;;;;9.68;3.80;;;;;;;12.83;97.12;101636.47;7385226;19;20380;-63
2023/10/06 05:41:44;;;;;;;8.55;3.60;;;;;;;12.87;97.13;101632.47;7386299;19;20372;-62
2023/10/06 05:44:12;;;;;;;8.73;3.70;;;;;;;12.89;96.92;101625.16;7387658;19;20446;-62
2023/10/06 05:46:41;;;;;;;8.68;3.70;;;;;;;12.93;96.91;101621.16;7385131;19;20719;-64
2023/10/06 05:49:11;;;;;;;9.50;3.83;;;;;;;12.99;96.72;101625.81;7381382;19;20430;-64
2023/10/06 05:51:38;;;;;;;7.82;3.65;;;;;;;13.04;96.52;101642.09;7381422;19;20352;-64
2023/10/06 05:54:12;;;;;;;9.02;3.63;;;;;;;13.12;96.36;101635.13;7382998;19;20360;-64
2023/10/06 05:56:42;;;;;;;8.48;3.22;;;;;;;13.12;96.06;101643.13;7394789;19;20349;-64
2023/10/06 05:59:09;;;;;;;9.52;3.20;;;;;;;13.17;95.79;101638.94;7395522;19;20871;-64
2023/10/06 06:01:36;;;;;;;9.07;3.45;;;;;;;13.19;95.74;101636.09;7395921;19;20827;-64
2023/10/06 06:04:09;;;;;;;8.70;3.47;;;;;;;13.21;95.47;101623.44;7393167;19;20357;-64
2023/10/06 06:06:37;;;;;;;8.85;3.10;;;;;;;13.22;95.32;101599.31;7395672;19;20372;-64
2023/10/06 06:09:14;;;;;;;6.90;3.38;;;;;;;13.26;95.27;101599.81;7389659;19;20356;-64
2023/10/06 06:11:42;;;;;;;7.63;3.53;;;;;;;13.30;95.09;101595.81;7394161;19;20353;-64
2023/10/06 06:14:09;;;;;;;7.00;2.90;;;;;;;13.37;94.59;101610.13;7397194;19;20359;-64
2023/10/06 06:16:44;;;;;;;8.05;3.08;;;;;;;13.44;94.40;101604.94;7395594;19;20948;-64
2023/10/06 06:19:11;;;;;;;9.48;3.25;;;;;;;13.50;94.18;101622.09;7393202;19;20349;-64
2023/10/06 06:21:38;;;;;;;7.72;3.28;;;;;;;13.57;93.91;101623.06;7394257;19;20353;-64
2023/10/06 06:24:06;;;;;;;5.68;2.70;;;;;;;13.62;93.20;101610.03;7395506;19;20946;-63
2023/10/06 06:26:36;;;;;;;10.73;3.25;;;;;;;13.69;93.29;101604.88;7395495;19;20333;-64
2023/10/06 06:29:08;;;;;;;8.52;3.58;;;;;;;13.76;92.95;101601.31;7392701;19;20348;-63
2023/10/06 06:31:37;;;;;;;6.30;2.92;;;;;;;13.79;92.46;101613.47;7396762;19;20863;-64
2023/10/06 06:34:07;;;;;;;8.25;3.30;;;;;;;13.83;92.29;101622.78;7395764;19;20384;-64
2023/10/06 06:36:35;;;;;;;8.35;3.30;;;;;;;13.90;92.32;101622.91;7395352;19;20497;-63
2023/10/06 06:39:03;;;;;;;8.60;3.28;;;;;;;13.96;92.41;101616.88;7393788;19;20533;-64
2023/10/06 06:41:30;;;;;;;8.48;3.25;;;;;;;13.97;91.61;101622.06;7395040;19;20358;-63
2023/10/06 06:44:00;;;;;;;7.13;3.15;;;;;;;14.03;91.66;101617.88;7396232;19;20386;-63
2023/10/06 06:46:29;;;;;;;11.80;3.58;;;;;;;14.09;91.48;101603.81;7395534;19;20430;-63
2023/10/06 06:48:57;;;;;;;6.82;3.00;;;;;;;14.14;91.44;101604.13;7393762;19;20361;-64
2023/10/06 06:51:27;;;;;;;9.35;3.03;;;;;;;14.15;91.25;101611.09;7395021;19;20373;-63
2023/10/06 06:53:57;;;;;;;8.40;3.13;;;;;;;14.14;91.08;101609.44;7394237;19;20385;-64
2023/10/06 06:56:26;;;;;;;4.47;2.60;;;;;;;14.15;91.32;101615.63;7393776;19;20364;-64
2023/10/06 06:58:53;;;;;;;8.05;2.95;;;;;;;14.10;90.93;101620.66;7394676;19;20939;-63
2023/10/06 07:01:20;;;;;;;7.63;2.83;;;;;;;14.09;90.99;101611.84;7392270;19;20356;-63
2023/10/06 07:03:47;;;;;;;9.25;3.38;;;;;;;14.07;91.19;101613.84;7396072;19;20376;-63
2023/10/06 07:06:16;;;;;;;9.13;3.33;;;;;;;14.06;91.55;101606.81;7393609;19;20379;-63
2023/10/06 07:08:45;;;;;;;7.90;2.75;;;;;;;13.98;91.30;101599.72;7390054;19;20408;-63
2023/10/06 07:11:12;;;;;;;7.43;2.90;;;;;;;14.03;91.34;101601.84;7395212;19;20372;-64
2023/10/06 07:13:40;;;;;;;9.40;2.85;;;;;;;14.11;91.41;101593.81;7394920;19;20360;-64
2023/10/06 07:16:09;;;;;;;7.10;3.00;;;;;;;14.16;91.33;101596.75;7393701;19;20361;-64
2023/10/06 07:18:39;;;;;;;9.63;3.47;;;;;;;14.23;91.20;101595.03;7391713;19;20397;-63
2023/10/06 07:21:10;;;;;;;8.90;3.03;;;;;;;14.37;91.35;101587.31;7392244;19;20388;-64
2023/10/06 07:23:38;;;;;;;7.80;3.22;;;;;;;14.48;90.71;101592.22;7391800;19;20352;-64
2023/10/06 07:26:11;;;;;;;10.67;3.07;;;;;;;14.61;90.83;101595.13;7391652;19;20434;-63
2023/10/06 07:28:42;;;;;;;6.53;2.97;;;;;;;14.68;89.85;101589.91;7392094;19;20718;-64
2023/10/06 07:31:16;;;;;;;8.40;3.05;;;;;;;14.80;89.58;101582.28;7393283;19;21185;-63
2023/10/06 07:33:52;;;;;;;8.75;3.40;;;;;;;14.88;89.07;101579.56;7393896;19;20451;-64
2023/10/06 07:36:19;;;;;;;7.25;3.05;;;;;;;14.95;88.95;101580.47;7392139;19;20372;-63
2023/10/06 07:38:48;;;;;;;9.07;3.42;;;;;;;15.07;88.97;101583.53;7393137;19;20340;-63
2023/10/06 07:41:19;;;;;;;6.93;2.83;;;;;;;15.15;88.53;101582.63;7392286;19;20336;-63
2023/10/06 07:43:49;;;;;;;6.72;3.13;;;;;;;15.26;88.29;101584.84;7393285;19;20344;-63
2023/10/06 07:46:16;;;;;;;9.73;3.15;;;;;;;15.36;88.16;101582.69;7393485;19;20392;-63
2023/10/06 07:48:47;;;;;;;9.70;3.22;;;;;;;15.44;86.94;101574.59;7390679;19;20368;-64
2023/10/06 07:51:14;;;;;;;7.30;3.00;;;;;;;15.55;86.41;101565.28;7393737;19;20360;-64
2023/10/06 07:53:41;;;;;;;5.95;2.72;;;;;;;15.64;86.02;101557.97;7390450;19;20371;-63
2023/10/06 07:56:08;;;;;;;8.95;2.75;;;;;;;15.72;85.55;101546.38;7391640;19;20374;-64
2023/10/06 07:58:43;;;;;;;10.57;3.07;;;;;;;15.74;84.90;101541.66;7387881;19;20395;-64
2023/10/06 08:01:12;;;;;;;7.25;2.72;;;;;;;15.83;83.51;101551.22;7393108;19;20328;-63
2023/10/06 08:03:41;;;;;;;7.22;2.47;;;;;;;15.87;82.43;101558.72;7393882;19;20711;-63
2023/10/06 08:06:10;;;;;;;6.90;2.42;;;;;;;16.03;82.37;101551.47;7394348;19;20352;-63
2023/10/06 08:08:38;;;;;;;7.30;2.03;;;;;;;16.14;81.22;101553.63;7398498;19;20360;-64
2023/10/06 08:11:06;;;;;;;7.95;2.50;;;;;;;16.39;81.68;101550.56;7397742;19;20389;-63
2023/10/06 08:13:36;;;;;;;5.90;2.13;;;;;;;16.57;81.02;101553.59;7400169;19;20948;-64
2023/10/06 08:16:08;;;;;;;5.27;2.23;;;;;;;16.63;79.10;101546.66;7399478;19;20336;-63
2023/10/06 08:18:35;;;;;;;7.97;2.90;;;;;;;16.62;78.53;101542.31;7398502;19;20383;-63
2023/10/06 08:21:03;;;;;;;6.25;2.33;;;;;;;16.70;78.22;101545.69;7398944;19;20685;-63
2023/10/06 08:23:31;;;;;;;8.05;2.97;;;;;;;16.79;78.83;101543.69;7398132;19;20361;-63
2023/10/06 08:25:58;;;;;;;7.53;2.35;;;;;;;16.84;77.82;101543.13;7399165;19;20370;-64
2023/10/06 08:28:27;;;;;;;6.90;1.98;;;;;;;16.84;78.13;101527.03;7396623;19;20385;-63
2023/10/06 08:30:54;;;;;;;7.63;2.40;;;;;;;16.86;77.61;101535.72;7398857;19;20443;-63
2023/10/06 08:33:25;;;;;;;7.55;2.42;;;;;;;16.86;77.44;101535.72;7399700;19;20891;-63
2023/10/06 08:35:57;;;;;;;7.65;2.35;;;;;;;16.82;77.09;101546.00;7398630;19;20424;-63
2023/10/06 08:38:24;;;;;;;7.70;2.38;;;;;;;16.88;77.98;101533.66;7397791;19;20360;-63
2023/10/06 08:40:58;;;;;;;7.05;2.20;;;;;;;16.90;77.27;101537.81;7397808;19;20368;-64
2023/10/06 08:43:27;;;;;;;5.88;1.85;;;;;;;16.95;77.06;101534.53;7400671;19;20337;-64
2023/10/06 08:45:59;;;;;;;7.55;2.75;;;;;;;16.97;77.15;101532.47;7395899;19;20369;-64
2023/10/06 08:48:35;;;;;;;5.97;2.10;;;;;;;17.04;76.46;101533.38;7391242;19;20447;-63
2023/10/06 08:51:07;;;;;;;6.72;2.08;;;;;;;17.08;75.77;101542.66;7399712;19;20360;-64
2023/10/06 08:53:37;;;;;;;5.07;2.00;;;;;;;17.16;75.64;101540.84;7394429;19;20378;-64
2023/10/06 08:56:05;;;;;;;6.85;2.38;;;;;;;17.28;74.83;101510.59;7397617;19;20369;-64
2023/10/06 08:58:31;;;;;;;6.50;2.47;;;;;;;17.51;74.98;101518.31;7393118;19;20364;-64
2023/10/06 09:00:59;;;;;;;6.45;2.17;;;;;;;17.56;73.27;101530.31;7397245;19;20356;-64
2023/10/06 09:03:27;;;;;;;6.22;2.20;;;;;;;17.56;73.25;101524.94;7397678;19;20696;-63
2023/10/06 09:05:54;;;;;;;7.25;1.85;;;;;;;17.59;72.56;101517.31;7396742;19;20360;-63
2023/10/06 09:08:21;;;;;;;6.35;2.25;;;;;;;17.64;72.90;101514.03;7397256;19;20365;-63
2023/10/06 09:10:50;;;;;;;5.15;2.10;;;;;;;17.61;72.39;101533.22;7392089;19;20373;-63
2023/10/06 09:13:19;;;;;;;7.22;2.13;;;;;;;17.67;72.13;101508.25;7399408;19;20358;-63
2023/10/06 09:16:08;;;;;;;6.65;2.15;;;;;;;17.80;73.38;101519.03;7395285;19;20996;-63
2023/10/06 09:18:38;;;;;;;5.90;1.90;;;;;;;17.79;72.70;101524.63;7393364;19;20356;-63
2023/10/06 09:21:13;;;;;;;5.25;1.77;;;;;;;17.85;72.09;101534.53;7396754;19;20428;-63
2023/10/06 09:23:40;;;;;;;6.63;2.22;;;;;;;17.91;71.89;101533.72;7398415;19;20715;-63
2023/10/06 09:26:11;;;;;;;7.33;2.10;;;;;;;17.89;72.05;101546.53;7397996;19;20731;-63
2023/10/06 09:28:55;;;;;;;5.20;1.77;;;;;;;18.00;71.89;101540.59;7394792;19;20545;-63
2023/10/06 09:31:44;;;;;;;7.30;2.28;;;;;;;17.98;70.54;101544.47;7397703;19;20384;-63
2023/10/06 09:34:22;;;;;;;6.25;2.13;;;;;;;17.96;70.83;101542.03;7398293;19;20880;-63
2023/10/06 09:36:50;;;;;;;5.55;2.25;;;;;;;17.98;70.61;101545.34;7398704;19;20339;-63
2023/10/06 09:39:29;;;;;;;6.00;2.00;;;;;;;18.09;70.63;101519.75;7394650;19;20875;-63
2023/10/06 09:41:57;;;;;;;4.50;1.90;;;;;;;18.13;71.29;101527.19;7397361;19;20352;-63
2023/10/06 09:44:27;;;;;;;5.18;2.40;;;;;;;18.20;71.03;101513.75;7398913;19;20709;-63
2023/10/06 09:46:57;;;;;;;7.00;2.10;;;;;;;18.30;71.27;101513.34;7398992;19;20352;-63
2023/10/06 09:49:26;;;;;;;6.50;1.98;;;;;;;18.35;70.02;101508.19;7394583;19;20423;-63
2023/10/06 09:51:58;;;;;;;4.45;1.75;;;;;;;18.39;69.32;101496.00;7397017;19;20369;-63
2023/10/06 09:54:26;;;;;;;6.38;2.28;;;;;;;18.49;69.51;101498.28;7396753;19;20361;-63
2023/10/06 09:56:55;;;;;;;7.97;2.42;;;;;;;18.53;68.88;101486.06;7398474;19;20775;-63
2023/10/06 09:59:24;;;;;;;6.72;2.38;;;;;;;18.55;66.86;101492.03;7394418;19;20411;-63
2023/10/06 10:01:52;;;;;;;6.40;1.60;;;;;;;18.57;66.51;101500.72;7395421;19;20381;-63
2023/10/06 10:04:20;;;;;;;6.72;1.70;;;;;;;18.74;67.42;101496.59;7397109;19;20373;-63
2023/10/06 10:06:48;;;;;;;7.30;2.40;;;;;;;18.70;65.81;101503.41;7400243;19;20365;-63
2023/10/06 10:09:20;;;;;;;7.43;2.08;;;;;;;18.74;65.73;101493.91;7399893;19;20349;-63
2023/10/06 10:12:04;;;;;;;5.40;1.70;;;;;;;18.90;67.25;101483.75;7398489;19;20335;-62
2023/10/06 10:14:49;;;;;;;6.43;2.00;;;;;;;18.99;65.80;101490.53;7393272;19;20401;-63
2023/10/06 10:17:29;;;;;;;6.40;2.07;;;;;;;19.12;65.55;101487.81;7396478;19;20361;-64
2023/10/06 10:19:58;;;;;;;5.57;1.50;;;;;;;19.03;64.11;101472.97;7395567;19;20352;-63
2023/10/06 10:22:28;;;;;;;5.53;1.90;;;;;;;19.18;64.92;101482.63;7396739;19;20353;-63
2023/10/06 10:24:57;;;;;;;9.48;2.30;;;;;;;19.23;64.70;101478.28;7394634;19;20868;-63
2023/10/06 10:28:04;;;;;;;5.63;1.93;;;;;;;19.22;63.21;101467.72;7393321;19;21172;-64
2023/10/06 10:30:56;;;;;;;4.63;1.70;;;;;;;19.25;63.95;101460.03;7389636;19;20376;-63
2023/10/06 10:33:31;;;;;;;4.70;1.73;;;;;;;19.29;63.35;101465.81;7395653;19;20919;-63
2023/10/06 10:36:17;;;;;;;6.13;1.60;;;;;;;19.36;62.11;101466.63;7396512;19;20749;-63
2023/10/06 10:39:01;;;;;;;5.50;1.83;;;;;;;19.46;63.25;101461.59;7392107;19;22054;-63
2023/10/06 10:41:34;;;;;;;5.75;1.63;;;;;;;19.48;61.92;101472.97;7395313;19;20883;-63
2023/10/06 10:44:03;;;;;;;5.03;1.60;;;;;;;19.47;60.95;101470.50;7393799;19;20420;-63
2023/10/06 10:46:53;;;;;;;6.30;1.87;;;;;;;19.63;61.81;101466.47;7393032;19;20369;-63
2023/10/06 10:49:22;;;;;;;6.55;2.03;;;;;;;19.53;59.79;101457.00;7392425;19;20343;-63
2023/10/06 10:51:55;;;;;;;5.93;1.50;;;;;;;19.58;60.54;101458.22;7395824;19;20377;-63
2023/10/06 10:54:31;;;;;;;3.55;1.42;;;;;;;19.54;60.65;101453.28;7393079;19;20434;-63
2023/10/06 10:57:05;;;;;;;4.85;1.70;;;;;;;19.61;61.08;101450.53;7394629;19;20336;-63
2023/10/06 11:03:00;;;;;;;5.18;1.98;;;;;;;19.45;59.61;101446.50;7388193;19;20397;-62
2023/10/06 11:05:27;;;;;;;5.00;1.90;;;;;;;19.59;60.50;101439.16;7393704;19;20374;-63
2023/10/06 11:08:01;;;;;;;8.20;2.05;;;;;;;19.72;59.73;101444.50;7391469;19;20397;-63
2023/10/06 11:10:32;;;;;;;4.85;1.60;;;;;;;19.71;59.05;101436.66;7393397;19;20382;-63
2023/10/06 11:13:19;;;;;;;4.97;1.83;;;;;;;19.77;58.75;101451.94;7395889;19;20887;-63
2023/10/06 11:15:49;;;;;;;4.68;1.63;;;;;;;19.81;58.39;101452.31;7394988;19;20372;-64
2023/10/06 11:18:20;;;;;;;4.63;1.58;;;;;;;19.83;58.68;101434.91;7394652;19;20377;-63
2023/10/06 11:20:48;;;;;;;4.93;1.83;;;;;;;19.98;59.06;101441.81;7394893;19;20368;-63
2023/10/06 11:23:15;;;;;;;5.40;2.05;;;;;;;20.17;58.46;101427.38;7392534;19;20847;-63
2023/10/06 11:25:49;;;;;;;5.68;1.95;;;;;;;20.15;57.92;101437.56;7392592;19;20376;-63
2023/10/06 11:28:18;;;;;;;4.78;1.70;;;;;;;20.15;58.08;101434.88;7392941;19;20351;-63
2023/10/06 11:30:45;;;;;;;5.77;1.60;;;;;;;20.10;58.23;101427.44;7392648;19;20920;-63
2023/10/06 11:33:13;;;;;;;4.43;1.67;;;;;;;20.17;58.08;101435.47;7395815;19;20867;-62
2023/10/06 11:35:41;;;;;;;6.45;1.83;;;;;;;20.26;58.70;101420.66;7391776;19;20352;-63
2023/10/06 11:38:11;;;;;;;6.03;2.00;;;;;;;20.47;59.00;101416.72;7393688;19;20420;-63
2023/10/06 11:40:40;;;;;;;4.22;1.80;;;;;;;20.62;58.12;101411.00;7387886;19;20765;-63
2023/10/06 11:43:16;;;;;;;4.82;1.58;;;;;;;20.69;56.33;101419.00;7393129;19;20867;-63
2023/10/06 11:45:44;;;;;;;5.10;1.52;;;;;;;20.80;55.69;101403.97;7389847;19;20363;-63
2023/10/06 11:48:35;;;;;;;4.93;1.70;;;;;;;20.90;56.16;101390.78;7389192;19;20364;-63
2023/10/06 11:51:08;;;;;;;7.20;1.90;;;;;;;21.09;55.14;101383.47;7386608;19;20344;-64